sensor_id;sensor_type;location;lat;lon;timestamp;P1;durP1;ratioP1;P2;durP2;ratioP2
75639;SDS011;64233;51.486;6.332;2022-12-24T00:02:21;7.30;;;2.10;;
75639;SDS011;64233;51.486;6.332;2022-12-24T00:04:47;10.45;;;2.45;;
75639;SDS011;64233;51.486;6.332;2022-12-24T00:07:12;11.65;;;2.03;;
75639;SDS011;64233;51.486;6.332;2022-12-24T00:09:37;9.30;;;1.70;;
75639;SDS011;64233;51.486;6.332;2022-12-24T00:12:03;15.02;;;2.83;;
75639;SDS011;64233;51.486;6.332;2022-12-24T00:14:29;14.75;;;1.98;;
75639;SDS011;64233;51.486;6.332;2022-12-24T00:16:54;7.20;;;1.92;;
75639;SDS011;64233;51.486;6.332;2022-12-24T00:19:19;6.57;;;1.45;;
75639;SDS011;64233;51.486;6.332;2022-12-24T00:21:45;8.68;;;2.85;;
75639;SDS011;64233;51.486;6.332;2022-12-24T00:24:10;5.60;;;1.60;;
75639;SDS011;64233;51.486;6.332;2022-12-24T00:26:35;10.57;;;2.55;;
75639;SDS011;64233;51.486;6.332;2022-12-24T00:29:00;17.08;;;2.38;;
75639;SDS011;64233;51.486;6.332;2022-12-24T00:31:26;8.60;;;2.25;;
75639;SDS011;64233;51.486;6.332;2022-12-24T00:33:52;9.68;;;2.10;;
75639;SDS011;64233;51.486;6.332;2022-12-24T00:36:17;18.45;;;3.55;;
75639;SDS011;64233;51.486;6.332;2022-12-24T00:38:43;6.43;;;1.33;;
75639;SDS011;64233;51.486;6.332;2022-12-24T00:41:09;14.18;;;2.42;;
75639;SDS011;64233;51.486;6.332;2022-12-24T00:43:49;16.35;;;3.17;;
75639;SDS011;64233;51.486;6.332;2022-12-24T00:46:22;10.93;;;2.90;;
75639;SDS011;64233;51.486;6.332;2022-12-24T00:48:48;13.57;;;2.25;;
75639;SDS011;64233;51.486;6.332;2022-12-24T00:51:14;12.40;;;1.90;;
75639;SDS011;64233;51.486;6.332;2022-12-24T00:53:40;8.95;;;1.65;;
75639;SDS011;64233;51.486;6.332;2022-12-24T00:56:05;9.65;;;2.13;;
75639;SDS011;64233;51.486;6.332;2022-12-24T00:58:31;14.98;;;1.55;;
75639;SDS011;64233;51.486;6.332;2022-12-24T01:00:57;6.95;;;1.75;;
75639;SDS011;64233;51.486;6.332;2022-12-24T01:03:22;5.88;;;1.65;;
75639;SDS011;64233;51.486;6.332;2022-12-24T01:05:58;9.20;;;2.00;;
75639;SDS011;64233;51.486;6.332;2022-12-24T01:08:23;20.67;;;2.65;;
75639;SDS011;64233;51.486;6.332;2022-12-24T01:10:48;7.40;;;1.80;;
75639;SDS011;64233;51.486;6.332;2022-12-24T01:13:14;8.18;;;2.63;;
75639;SDS011;64233;51.486;6.332;2022-12-24T01:15:39;8.48;;;1.67;;
75639;SDS011;64233;51.486;6.332;2022-12-24T01:18:04;14.02;;;2.72;;
75639;SDS011;64233;51.486;6.332;2022-12-24T01:20:29;17.75;;;2.13;;
75639;SDS011;64233;51.486;6.332;2022-12-24T01:22:56;15.90;;;2.75;;
75639;SDS011;64233;51.486;6.332;2022-12-24T01:25:22;9.52;;;2.35;;
75639;SDS011;64233;51.486;6.332;2022-12-24T01:27:47;17.88;;;3.20;;
75639;SDS011;64233;51.486;6.332;2022-12-24T01:30:12;16.63;;;3.20;;
75639;SDS011;64233;51.486;6.332;2022-12-24T01:32:39;9.38;;;1.30;;
75639;SDS011;64233;51.486;6.332;2022-12-24T01:35:04;17.02;;;2.70;;
75639;SDS011;64233;51.486;6.332;2022-12-24T01:37:29;19.23;;;1.30;;
75639;SDS011;64233;51.486;6.332;2022-12-24T01:39:55;7.70;;;2.08;;
75639;SDS011;64233;51.486;6.332;2022-12-24T01:42:41;8.13;;;2.60;;
75639;SDS011;64233;51.486;6.332;2022-12-24T01:48:34;14.43;;;3.20;;
75639;SDS011;64233;51.486;6.332;2022-12-24T01:51:29;15.00;;;2.50;;
75639;SDS011;64233;51.486;6.332;2022-12-24T01:54:20;14.70;;;3.40;;
75639;SDS011;64233;51.486;6.332;2022-12-24T01:56:48;10.73;;;2.80;;
75639;SDS011;64233;51.486;6.332;2022-12-24T01:59:17;14.40;;;2.45;;
75639;SDS011;64233;51.486;6.332;2022-12-24T02:01:45;11.35;;;2.42;;
75639;SDS011;64233;51.486;6.332;2022-12-24T02:04:15;15.65;;;2.78;;
75639;SDS011;64233;51.486;6.332;2022-12-24T02:06:48;12.45;;;2.70;;
75639;SDS011;64233;51.486;6.332;2022-12-24T02:09:13;8.43;;;2.15;;
75639;SDS011;64233;51.486;6.332;2022-12-24T02:11:39;6.50;;;1.70;;
75639;SDS011;64233;51.486;6.332;2022-12-24T02:14:07;10.45;;;2.58;;
75639;SDS011;64233;51.486;6.332;2022-12-24T02:24:40;15.73;;;3.60;;
75639;SDS011;64233;51.486;6.332;2022-12-24T02:27:25;17.02;;;2.15;;
75639;SDS011;64233;51.486;6.332;2022-12-24T02:30:19;5.55;;;1.52;;
75639;SDS011;64233;51.486;6.332;2022-12-24T02:35:43;6.88;;;1.67;;
75639;SDS011;64233;51.486;6.332;2022-12-24T02:38:12;12.38;;;3.03;;
75639;SDS011;64233;51.486;6.332;2022-12-24T02:40:46;13.00;;;2.20;;
75639;SDS011;64233;51.486;6.332;2022-12-24T02:43:18;7.90;;;2.30;;
75639;SDS011;64233;51.486;6.332;2022-12-24T02:45:48;23.15;;;4.25;;
75639;SDS011;64233;51.486;6.332;2022-12-24T02:48:17;20.33;;;2.50;;
75639;SDS011;64233;51.486;6.332;2022-12-24T02:51:00;24.02;;;3.53;;
75639;SDS011;64233;51.486;6.332;2022-12-24T02:53:29;9.50;;;2.55;;
75639;SDS011;64233;51.486;6.332;2022-12-24T02:56:01;13.48;;;3.08;;
75639;SDS011;64233;51.486;6.332;2022-12-24T03:04:18;14.63;;;2.83;;
75639;SDS011;64233;51.486;6.332;2022-12-24T03:07:06;17.10;;;2.88;;
75639;SDS011;64233;51.486;6.332;2022-12-24T03:09:49;19.80;;;2.72;;
75639;SDS011;64233;51.486;6.332;2022-12-24T03:12:43;10.75;;;2.33;;
75639;SDS011;64233;51.486;6.332;2022-12-24T03:15:09;8.75;;;2.72;;
75639;SDS011;64233;51.486;6.332;2022-12-24T03:17:37;9.63;;;2.60;;
75639;SDS011;64233;51.486;6.332;2022-12-24T03:20:05;17.23;;;2.80;;
75639;SDS011;64233;51.486;6.332;2022-12-24T03:22:32;13.05;;;3.65;;
75639;SDS011;64233;51.486;6.332;2022-12-24T03:24:59;14.82;;;3.35;;
75639;SDS011;64233;51.486;6.332;2022-12-24T03:27:25;21.13;;;2.65;;
75639;SDS011;64233;51.486;6.332;2022-12-24T03:29:52;11.13;;;1.92;;
75639;SDS011;64233;51.486;6.332;2022-12-24T03:32:21;15.20;;;2.75;;
75639;SDS011;64233;51.486;6.332;2022-12-24T03:34:48;16.08;;;2.30;;
75639;SDS011;64233;51.486;6.332;2022-12-24T03:37:13;18.60;;;3.00;;
75639;SDS011;64233;51.486;6.332;2022-12-24T03:39:39;13.27;;;3.33;;
75639;SDS011;64233;51.486;6.332;2022-12-24T03:42:04;14.57;;;3.30;;
75639;SDS011;64233;51.486;6.332;2022-12-24T03:44:29;18.58;;;3.30;;
75639;SDS011;64233;51.486;6.332;2022-12-24T03:46:54;8.02;;;1.98;;
75639;SDS011;64233;51.486;6.332;2022-12-24T03:49:20;14.38;;;2.67;;
75639;SDS011;64233;51.486;6.332;2022-12-24T03:51:45;10.85;;;2.95;;
75639;SDS011;64233;51.486;6.332;2022-12-24T03:54:10;8.75;;;2.10;;
75639;SDS011;64233;51.486;6.332;2022-12-24T03:56:35;10.82;;;2.28;;
75639;SDS011;64233;51.486;6.332;2022-12-24T03:59:01;11.55;;;2.28;;
75639;SDS011;64233;51.486;6.332;2022-12-24T04:01:26;14.80;;;2.58;;
75639;SDS011;64233;51.486;6.332;2022-12-24T04:03:51;13.45;;;2.70;;
75639;SDS011;64233;51.486;6.332;2022-12-24T04:06:17;20.30;;;3.78;;
75639;SDS011;64233;51.486;6.332;2022-12-24T04:08:42;24.60;;;2.50;;
75639;SDS011;64233;51.486;6.332;2022-12-24T04:11:08;15.90;;;3.13;;
75639;SDS011;64233;51.486;6.332;2022-12-24T04:13:35;9.70;;;2.35;;
75639;SDS011;64233;51.486;6.332;2022-12-24T04:16:04;10.27;;;2.20;;
75639;SDS011;64233;51.486;6.332;2022-12-24T04:18:31;10.45;;;2.25;;
75639;SDS011;64233;51.486;6.332;2022-12-24T04:20:57;10.75;;;3.20;;
75639;SDS011;64233;51.486;6.332;2022-12-24T04:23:23;14.55;;;2.42;;
75639;SDS011;64233;51.486;6.332;2022-12-24T04:25:49;10.50;;;2.00;;
75639;SDS011;64233;51.486;6.332;2022-12-24T04:28:15;8.05;;;2.45;;
75639;SDS011;64233;51.486;6.332;2022-12-24T04:30:41;5.07;;;1.58;;
75639;SDS011;64233;51.486;6.332;2022-12-24T04:33:06;13.52;;;2.75;;
75639;SDS011;64233;51.486;6.332;2022-12-24T04:35:32;15.30;;;1.42;;
75639;SDS011;64233;51.486;6.332;2022-12-24T04:37:58;7.20;;;1.70;;
75639;SDS011;64233;51.486;6.332;2022-12-24T04:40:23;15.57;;;2.92;;
75639;SDS011;64233;51.486;6.332;2022-12-24T04:42:49;4.75;;;1.27;;
75639;SDS011;64233;51.486;6.332;2022-12-24T04:45:15;3.55;;;1.58;;
75639;SDS011;64233;51.486;6.332;2022-12-24T04:47:41;6.40;;;1.92;;
75639;SDS011;64233;51.486;6.332;2022-12-24T04:50:06;6.40;;;1.80;;
75639;SDS011;64233;51.486;6.332;2022-12-24T04:52:32;4.60;;;1.77;;
75639;SDS011;64233;51.486;6.332;2022-12-24T04:54:58;7.10;;;1.95;;
75639;SDS011;64233;51.486;6.332;2022-12-24T04:57:23;12.27;;;1.80;;
75639;SDS011;64233;51.486;6.332;2022-12-24T04:59:48;6.47;;;2.03;;
75639;SDS011;64233;51.486;6.332;2022-12-24T05:02:14;5.68;;;1.65;;
75639;SDS011;64233;51.486;6.332;2022-12-24T05:04:39;6.45;;;1.90;;
75639;SDS011;64233;51.486;6.332;2022-12-24T05:07:04;10.27;;;2.75;;
75639;SDS011;64233;51.486;6.332;2022-12-24T05:09:29;6.25;;;1.65;;
75639;SDS011;64233;51.486;6.332;2022-12-24T05:11:55;11.32;;;2.00;;
75639;SDS011;64233;51.486;6.332;2022-12-24T05:14:20;12.13;;;1.98;;
75639;SDS011;64233;51.486;6.332;2022-12-24T05:16:45;11.88;;;3.38;;
75639;SDS011;64233;51.486;6.332;2022-12-24T05:19:11;12.82;;;2.33;;
75639;SDS011;64233;51.486;6.332;2022-12-24T05:21:36;10.80;;;2.28;;
75639;SDS011;64233;51.486;6.332;2022-12-24T05:24:01;16.25;;;2.80;;
75639;SDS011;64233;51.486;6.332;2022-12-24T05:26:49;12.73;;;3.97;;
75639;SDS011;64233;51.486;6.332;2022-12-24T05:29:23;8.85;;;2.17;;
75639;SDS011;64233;51.486;6.332;2022-12-24T05:31:55;7.70;;;1.77;;
75639;SDS011;64233;51.486;6.332;2022-12-24T05:34:27;16.45;;;3.35;;
75639;SDS011;64233;51.486;6.332;2022-12-24T05:36:59;7.57;;;1.67;;
75639;SDS011;64233;51.486;6.332;2022-12-24T05:39:24;10.60;;;2.05;;
75639;SDS011;64233;51.486;6.332;2022-12-24T05:41:50;16.48;;;2.05;;
75639;SDS011;64233;51.486;6.332;2022-12-24T05:44:15;8.45;;;1.80;;
75639;SDS011;64233;51.486;6.332;2022-12-24T05:46:41;10.35;;;2.55;;
75639;SDS011;64233;51.486;6.332;2022-12-24T05:49:07;11.65;;;2.95;;
75639;SDS011;64233;51.486;6.332;2022-12-24T05:51:32;9.65;;;2.55;;
75639;SDS011;64233;51.486;6.332;2022-12-24T05:53:57;7.00;;;1.85;;
75639;SDS011;64233;51.486;6.332;2022-12-24T05:56:23;8.65;;;1.38;;
75639;SDS011;64233;51.486;6.332;2022-12-24T05:58:50;10.55;;;2.35;;
75639;SDS011;64233;51.486;6.332;2022-12-24T06:01:17;6.57;;;2.15;;
75639;SDS011;64233;51.486;6.332;2022-12-24T06:03:43;10.77;;;2.38;;
75639;SDS011;64233;51.486;6.332;2022-12-24T06:06:10;7.97;;;2.53;;
75639;SDS011;64233;51.486;6.332;2022-12-24T06:08:38;10.70;;;2.22;;
75639;SDS011;64233;51.486;6.332;2022-12-24T06:11:05;2.20;;;1.25;;
75639;SDS011;64233;51.486;6.332;2022-12-24T06:13:32;13.05;;;2.28;;
75639;SDS011;64233;51.486;6.332;2022-12-24T06:15:58;6.90;;;2.10;;
75639;SDS011;64233;51.486;6.332;2022-12-24T06:18:25;12.07;;;2.65;;
75639;SDS011;64233;51.486;6.332;2022-12-24T06:20:51;10.77;;;2.50;;
75639;SDS011;64233;51.486;6.332;2022-12-24T06:23:17;17.08;;;2.45;;
75639;SDS011;64233;51.486;6.332;2022-12-24T06:25:42;11.50;;;2.88;;
75639;SDS011;64233;51.486;6.332;2022-12-24T06:28:08;9.73;;;2.35;;
75639;SDS011;64233;51.486;6.332;2022-12-24T06:30:33;7.65;;;2.50;;
75639;SDS011;64233;51.486;6.332;2022-12-24T06:32:58;16.83;;;2.88;;
75639;SDS011;64233;51.486;6.332;2022-12-24T06:35:24;11.05;;;2.10;;
75639;SDS011;64233;51.486;6.332;2022-12-24T06:37:49;14.13;;;2.58;;
75639;SDS011;64233;51.486;6.332;2022-12-24T06:40:14;8.95;;;2.20;;
75639;SDS011;64233;51.486;6.332;2022-12-24T06:42:39;8.65;;;1.65;;
75639;SDS011;64233;51.486;6.332;2022-12-24T06:45:05;16.67;;;2.47;;
75639;SDS011;64233;51.486;6.332;2022-12-24T06:47:31;20.77;;;3.78;;
75639;SDS011;64233;51.486;6.332;2022-12-24T06:49:56;7.57;;;2.13;;
75639;SDS011;64233;51.486;6.332;2022-12-24T06:52:21;7.68;;;1.88;;
75639;SDS011;64233;51.486;6.332;2022-12-24T06:54:46;7.10;;;1.77;;
75639;SDS011;64233;51.486;6.332;2022-12-24T06:57:12;18.50;;;3.25;;
75639;SDS011;64233;51.486;6.332;2022-12-24T06:59:37;4.63;;;1.00;;
75639;SDS011;64233;51.486;6.332;2022-12-24T07:02:02;12.35;;;2.65;;
75639;SDS011;64233;51.486;6.332;2022-12-24T07:04:28;12.48;;;2.55;;
75639;SDS011;64233;51.486;6.332;2022-12-24T07:06:54;8.65;;;2.70;;
75639;SDS011;64233;51.486;6.332;2022-12-24T07:09:19;8.80;;;2.85;;
75639;SDS011;64233;51.486;6.332;2022-12-24T07:11:44;14.38;;;2.42;;
75639;SDS011;64233;51.486;6.332;2022-12-24T07:14:09;10.55;;;2.47;;
75639;SDS011;64233;51.486;6.332;2022-12-24T07:16:35;14.77;;;4.20;;
75639;SDS011;64233;51.486;6.332;2022-12-24T07:19:00;10.20;;;3.15;;
75639;SDS011;64233;51.486;6.332;2022-12-24T07:21:25;5.82;;;1.88;;
75639;SDS011;64233;51.486;6.332;2022-12-24T07:23:50;12.73;;;2.30;;
75639;SDS011;64233;51.486;6.332;2022-12-24T07:26:16;16.55;;;3.30;;
75639;SDS011;64233;51.486;6.332;2022-12-24T07:28:41;7.90;;;2.08;;
75639;SDS011;64233;51.486;6.332;2022-12-24T07:31:06;9.45;;;2.53;;
75639;SDS011;64233;51.486;6.332;2022-12-24T07:33:31;9.25;;;2.47;;
75639;SDS011;64233;51.486;6.332;2022-12-24T07:35:58;10.77;;;2.03;;
75639;SDS011;64233;51.486;6.332;2022-12-24T07:38:28;9.30;;;2.30;;
75639;SDS011;64233;51.486;6.332;2022-12-24T07:40:54;12.18;;;2.78;;
75639;SDS011;64233;51.486;6.332;2022-12-24T07:43:20;12.35;;;2.97;;
75639;SDS011;64233;51.486;6.332;2022-12-24T07:45:46;8.65;;;1.88;;
75639;SDS011;64233;51.486;6.332;2022-12-24T07:48:11;15.38;;;3.08;;
75639;SDS011;64233;51.486;6.332;2022-12-24T07:50:36;11.68;;;2.35;;
75639;SDS011;64233;51.486;6.332;2022-12-24T07:53:02;13.13;;;2.80;;
75639;SDS011;64233;51.486;6.332;2022-12-24T07:55:27;8.52;;;2.40;;
75639;SDS011;64233;51.486;6.332;2022-12-24T07:57:52;8.60;;;2.22;;
75639;SDS011;64233;51.486;6.332;2022-12-24T08:00:17;9.13;;;2.28;;
75639;SDS011;64233;51.486;6.332;2022-12-24T08:02:43;9.48;;;2.00;;
75639;SDS011;64233;51.486;6.332;2022-12-24T08:05:08;15.43;;;4.07;;
75639;SDS011;64233;51.486;6.332;2022-12-24T08:07:34;13.30;;;4.38;;
75639;SDS011;64233;51.486;6.332;2022-12-24T08:09:59;12.65;;;2.72;;
75639;SDS011;64233;51.486;6.332;2022-12-24T08:12:24;11.05;;;2.47;;
75639;SDS011;64233;51.486;6.332;2022-12-24T08:14:49;7.13;;;2.72;;
75639;SDS011;64233;51.486;6.332;2022-12-24T08:17:15;19.30;;;3.33;;
75639;SDS011;64233;51.486;6.332;2022-12-24T08:19:40;14.13;;;2.72;;
75639;SDS011;64233;51.486;6.332;2022-12-24T08:22:05;17.02;;;3.17;;
75639;SDS011;64233;51.486;6.332;2022-12-24T08:24:30;9.32;;;2.63;;
75639;SDS011;64233;51.486;6.332;2022-12-24T08:26:56;7.40;;;2.00;;
75639;SDS011;64233;51.486;6.332;2022-12-24T08:29:22;16.20;;;2.95;;
75639;SDS011;64233;51.486;6.332;2022-12-24T08:31:47;14.45;;;2.65;;
75639;SDS011;64233;51.486;6.332;2022-12-24T08:34:12;15.23;;;3.17;;
75639;SDS011;64233;51.486;6.332;2022-12-24T08:36:37;16.55;;;3.17;;
75639;SDS011;64233;51.486;6.332;2022-12-24T08:39:03;16.17;;;3.22;;
75639;SDS011;64233;51.486;6.332;2022-12-24T08:41:31;23.40;;;3.05;;
75639;SDS011;64233;51.486;6.332;2022-12-24T08:43:57;22.23;;;3.83;;
75639;SDS011;64233;51.486;6.332;2022-12-24T08:46:22;11.43;;;2.10;;
75639;SDS011;64233;51.486;6.332;2022-12-24T08:48:47;12.50;;;3.10;;
75639;SDS011;64233;51.486;6.332;2022-12-24T08:51:13;11.48;;;2.97;;
75639;SDS011;64233;51.486;6.332;2022-12-24T08:53:38;16.58;;;3.40;;
75639;SDS011;64233;51.486;6.332;2022-12-24T08:56:11;11.57;;;3.00;;
75639;SDS011;64233;51.486;6.332;2022-12-24T08:58:37;11.40;;;3.30;;
75639;SDS011;64233;51.486;6.332;2022-12-24T09:01:09;11.70;;;2.80;;
75639;SDS011;64233;51.486;6.332;2022-12-24T09:03:36;16.30;;;3.58;;
75639;SDS011;64233;51.486;6.332;2022-12-24T09:06:02;11.13;;;2.10;;
75639;SDS011;64233;51.486;6.332;2022-12-24T09:08:28;20.58;;;4.13;;
75639;SDS011;64233;51.486;6.332;2022-12-24T09:10:53;7.72;;;2.30;;
75639;SDS011;64233;51.486;6.332;2022-12-24T09:13:19;17.52;;;4.15;;
75639;SDS011;64233;51.486;6.332;2022-12-24T09:15:51;13.85;;;2.80;;
75639;SDS011;64233;51.486;6.332;2022-12-24T09:18:17;16.45;;;3.30;;
75639;SDS011;64233;51.486;6.332;2022-12-24T09:20:42;19.00;;;4.32;;
75639;SDS011;64233;51.486;6.332;2022-12-24T09:23:07;9.32;;;2.17;;
75639;SDS011;64233;51.486;6.332;2022-12-24T09:25:33;15.98;;;2.42;;
75639;SDS011;64233;51.486;6.332;2022-12-24T09:27:58;11.95;;;2.33;;
75639;SDS011;64233;51.486;6.332;2022-12-24T09:30:24;15.90;;;3.03;;
75639;SDS011;64233;51.486;6.332;2022-12-24T09:32:50;16.85;;;4.00;;
75639;SDS011;64233;51.486;6.332;2022-12-24T09:35:15;10.75;;;2.85;;
75639;SDS011;64233;51.486;6.332;2022-12-24T09:37:41;11.52;;;2.88;;
75639;SDS011;64233;51.486;6.332;2022-12-24T09:40:06;7.53;;;3.03;;
75639;SDS011;64233;51.486;6.332;2022-12-24T09:42:43;14.52;;;3.05;;
75639;SDS011;64233;51.486;6.332;2022-12-24T09:45:19;11.77;;;3.35;;
75639;SDS011;64233;51.486;6.332;2022-12-24T09:47:52;7.57;;;2.55;;
75639;SDS011;64233;51.486;6.332;2022-12-24T09:50:25;10.82;;;2.72;;
75639;SDS011;64233;51.486;6.332;2022-12-24T09:52:59;17.00;;;2.97;;
75639;SDS011;64233;51.486;6.332;2022-12-24T09:55:36;12.20;;;3.13;;
75639;SDS011;64233;51.486;6.332;2022-12-24T09:58:09;18.00;;;3.20;;
75639;SDS011;64233;51.486;6.332;2022-12-24T10:00:52;7.28;;;1.52;;
75639;SDS011;64233;51.486;6.332;2022-12-24T10:03:19;8.55;;;3.03;;
75639;SDS011;64233;51.486;6.332;2022-12-24T10:11:25;18.42;;;3.08;;
75639;SDS011;64233;51.486;6.332;2022-12-24T10:14:00;18.35;;;2.83;;
75639;SDS011;64233;51.486;6.332;2022-12-24T10:16:48;15.20;;;3.15;;
75639;SDS011;64233;51.486;6.332;2022-12-24T10:27:56;14.27;;;2.20;;
75639;SDS011;64233;51.486;6.332;2022-12-24T10:30:24;12.02;;;3.05;;
75639;SDS011;64233;51.486;6.332;2022-12-24T10:32:50;15.98;;;3.63;;
75639;SDS011;64233;51.486;6.332;2022-12-24T10:35:31;15.00;;;3.25;;
75639;SDS011;64233;51.486;6.332;2022-12-24T10:38:00;16.42;;;3.60;;
75639;SDS011;64233;51.486;6.332;2022-12-24T10:40:28;19.83;;;3.00;;
75639;SDS011;64233;51.486;6.332;2022-12-24T10:42:58;9.38;;;3.20;;
75639;SDS011;64233;51.486;6.332;2022-12-24T10:45:24;11.63;;;3.53;;
75639;SDS011;64233;51.486;6.332;2022-12-24T10:47:56;20.23;;;3.72;;
75639;SDS011;64233;51.486;6.332;2022-12-24T10:53:20;14.75;;;3.33;;
75639;SDS011;64233;51.486;6.332;2022-12-24T10:55:47;12.82;;;3.25;;
75639;SDS011;64233;51.486;6.332;2022-12-24T10:58:17;12.90;;;2.63;;
75639;SDS011;64233;51.486;6.332;2022-12-24T11:00:48;13.32;;;2.95;;
75639;SDS011;64233;51.486;6.332;2022-12-24T11:03:23;15.77;;;3.05;;
75639;SDS011;64233;51.486;6.332;2022-12-24T11:06:15;15.05;;;3.28;;
75639;SDS011;64233;51.486;6.332;2022-12-24T11:08:45;19.80;;;3.72;;
75639;SDS011;64233;51.486;6.332;2022-12-24T11:11:11;15.80;;;3.72;;
75639;SDS011;64233;51.486;6.332;2022-12-24T11:18:53;14.32;;;3.50;;
75639;SDS011;64233;51.486;6.332;2022-12-24T11:21:31;19.83;;;4.35;;
75639;SDS011;64233;51.486;6.332;2022-12-24T11:24:13;15.65;;;3.72;;
75639;SDS011;64233;51.486;6.332;2022-12-24T11:27:49;16.83;;;3.72;;
75639;SDS011;64233;51.486;6.332;2022-12-24T11:32:42;14.93;;;2.88;;
75639;SDS011;64233;51.486;6.332;2022-12-24T11:35:38;18.25;;;4.10;;
75639;SDS011;64233;51.486;6.332;2022-12-24T11:40:32;14.10;;;2.77;;
75639;SDS011;64233;51.486;6.332;2022-12-24T11:43:03;17.02;;;3.15;;
75639;SDS011;64233;51.486;6.332;2022-12-24T11:45:30;11.50;;;2.67;;
75639;SDS011;64233;51.486;6.332;2022-12-24T11:47:57;12.57;;;2.90;;
75639;SDS011;64233;51.486;6.332;2022-12-24T11:55:40;19.20;;;3.17;;
75639;SDS011;64233;51.486;6.332;2022-12-24T11:58:27;16.10;;;4.13;;
75639;SDS011;64233;51.486;6.332;2022-12-24T12:01:11;22.00;;;4.03;;
75639;SDS011;64233;51.486;6.332;2022-12-24T12:03:47;12.43;;;3.35;;
75639;SDS011;64233;51.486;6.332;2022-12-24T12:06:37;19.08;;;3.45;;
75639;SDS011;64233;51.486;6.332;2022-12-24T12:09:05;11.98;;;3.33;;
75639;SDS011;64233;51.486;6.332;2022-12-24T12:11:34;17.73;;;3.47;;
75639;SDS011;64233;51.486;6.332;2022-12-24T12:14:04;22.83;;;3.85;;
75639;SDS011;64233;51.486;6.332;2022-12-24T12:19:24;19.55;;;3.67;;
75639;SDS011;64233;51.486;6.332;2022-12-24T12:21:53;12.40;;;3.50;;
75639;SDS011;64233;51.486;6.332;2022-12-24T12:24:21;12.30;;;3.25;;
75639;SDS011;64233;51.486;6.332;2022-12-24T12:27:04;19.27;;;4.35;;
75639;SDS011;64233;51.486;6.332;2022-12-24T12:30:00;10.32;;;3.95;;
75639;SDS011;64233;51.486;6.332;2022-12-24T12:35:30;19.02;;;3.92;;
75639;SDS011;64233;51.486;6.332;2022-12-24T12:38:07;13.80;;;3.80;;
75639;SDS011;64233;51.486;6.332;2022-12-24T12:43:26;22.55;;;5.18;;
75639;SDS011;64233;51.486;6.332;2022-12-24T12:55:34;14.88;;;4.20;;
75639;SDS011;64233;51.486;6.332;2022-12-24T12:58:20;20.75;;;5.97;;
75639;SDS011;64233;51.486;6.332;2022-12-24T13:00:52;9.50;;;4.07;;
75639;SDS011;64233;51.486;6.332;2022-12-24T13:03:37;16.05;;;4.00;;
75639;SDS011;64233;51.486;6.332;2022-12-24T13:06:20;13.65;;;3.70;;
75639;SDS011;64233;51.486;6.332;2022-12-24T13:09:09;14.80;;;4.28;;
75639;SDS011;64233;51.486;6.332;2022-12-24T13:11:53;16.23;;;3.72;;
75639;SDS011;64233;51.486;6.332;2022-12-24T13:14:37;14.48;;;4.45;;
75639;SDS011;64233;51.486;6.332;2022-12-24T13:20:32;13.87;;;4.20;;
75639;SDS011;64233;51.486;6.332;2022-12-24T13:23:02;15.35;;;4.07;;
75639;SDS011;64233;51.486;6.332;2022-12-24T13:30:46;18.70;;;4.53;;
75639;SDS011;64233;51.486;6.332;2022-12-24T13:36:04;17.60;;;4.18;;
75639;SDS011;64233;51.486;6.332;2022-12-24T13:38:31;13.02;;;5.47;;
75639;SDS011;64233;51.486;6.332;2022-12-24T13:49:40;18.15;;;4.55;;
75639;SDS011;64233;51.486;6.332;2022-12-24T13:54:42;11.48;;;4.53;;
75639;SDS011;64233;51.486;6.332;2022-12-24T13:59:58;19.48;;;3.80;;
75639;SDS011;64233;51.486;6.332;2022-12-24T14:02:28;10.85;;;3.78;;
75639;SDS011;64233;51.486;6.332;2022-12-24T14:05:01;11.50;;;3.30;;
75639;SDS011;64233;51.486;6.332;2022-12-24T14:07:32;11.40;;;3.72;;
75639;SDS011;64233;51.486;6.332;2022-12-24T14:09:58;10.13;;;4.03;;
75639;SDS011;64233;51.486;6.332;2022-12-24T14:14:56;20.08;;;4.25;;
75639;SDS011;64233;51.486;6.332;2022-12-24T14:17:23;16.33;;;4.43;;
75639;SDS011;64233;51.486;6.332;2022-12-24T14:19:50;10.00;;;3.65;;
75639;SDS011;64233;51.486;6.332;2022-12-24T14:22:28;9.15;;;3.33;;
75639;SDS011;64233;51.486;6.332;2022-12-24T14:24:58;16.00;;;4.03;;
75639;SDS011;64233;51.486;6.332;2022-12-24T14:27:42;11.50;;;4.10;;
75639;SDS011;64233;51.486;6.332;2022-12-24T14:32:49;9.07;;;3.50;;
75639;SDS011;64233;51.486;6.332;2022-12-24T14:35:17;13.90;;;4.43;;
75639;SDS011;64233;51.486;6.332;2022-12-24T14:37:47;11.98;;;3.03;;
75639;SDS011;64233;51.486;6.332;2022-12-24T14:40:24;9.48;;;3.45;;
75639;SDS011;64233;51.486;6.332;2022-12-24T14:42:53;9.45;;;3.83;;
75639;SDS011;64233;51.486;6.332;2022-12-24T14:45:29;9.70;;;3.00;;
75639;SDS011;64233;51.486;6.332;2022-12-24T14:54:05;6.32;;;3.05;;
75639;SDS011;64233;51.486;6.332;2022-12-24T14:56:31;19.80;;;4.05;;
75639;SDS011;64233;51.486;6.332;2022-12-24T14:58:56;12.60;;;4.50;;
75639;SDS011;64233;51.486;6.332;2022-12-24T15:01:28;12.52;;;3.65;;
75639;SDS011;64233;51.486;6.332;2022-12-24T15:06:34;14.18;;;3.80;;
75639;SDS011;64233;51.486;6.332;2022-12-24T15:11:50;29.67;;;4.32;;
75639;SDS011;64233;51.486;6.332;2022-12-24T15:14:19;8.90;;;4.05;;
75639;SDS011;64233;51.486;6.332;2022-12-24T15:16:53;11.93;;;3.60;;
75639;SDS011;64233;51.486;6.332;2022-12-24T15:19:25;9.50;;;3.38;;
75639;SDS011;64233;51.486;6.332;2022-12-24T15:21:55;18.73;;;4.30;;
75639;SDS011;64233;51.486;6.332;2022-12-24T15:24:34;11.05;;;3.22;;
75639;SDS011;64233;51.486;6.332;2022-12-24T15:27:02;17.55;;;3.72;;
75639;SDS011;64233;51.486;6.332;2022-12-24T15:29:41;15.55;;;3.25;;
75639;SDS011;64233;51.486;6.332;2022-12-24T15:32:09;12.32;;;3.50;;
75639;SDS011;64233;51.486;6.332;2022-12-24T15:34:38;13.52;;;3.30;;
75639;SDS011;64233;51.486;6.332;2022-12-24T15:42:44;11.52;;;3.00;;
75639;SDS011;64233;51.486;6.332;2022-12-24T15:45:14;14.45;;;3.30;;
75639;SDS011;64233;51.486;6.332;2022-12-24T15:50:50;15.10;;;3.97;;
75639;SDS011;64233;51.486;6.332;2022-12-24T15:53:13;11.55;;;3.65;;
75639;SDS011;64233;51.486;6.332;2022-12-24T15:55:43;15.85;;;4.57;;
75639;SDS011;64233;51.486;6.332;2022-12-24T16:00:59;9.80;;;3.85;;
75639;SDS011;64233;51.486;6.332;2022-12-24T16:03:25;9.70;;;4.07;;
75639;SDS011;64233;51.486;6.332;2022-12-24T16:06:09;12.27;;;3.90;;
75639;SDS011;64233;51.486;6.332;2022-12-24T16:08:39;14.10;;;3.35;;
75639;SDS011;64233;51.486;6.332;2022-12-24T16:14:16;23.17;;;4.35;;
75639;SDS011;64233;51.486;6.332;2022-12-24T16:16:51;7.05;;;3.28;;
75639;SDS011;64233;51.486;6.332;2022-12-24T16:19:28;11.45;;;3.28;;
75639;SDS011;64233;51.486;6.332;2022-12-24T16:21:59;19.63;;;3.65;;
75639;SDS011;64233;51.486;6.332;2022-12-24T16:24:49;19.05;;;4.32;;
75639;SDS011;64233;51.486;6.332;2022-12-24T16:27:16;16.08;;;3.67;;
75639;SDS011;64233;51.486;6.332;2022-12-24T16:29:41;13.35;;;3.85;;
75639;SDS011;64233;51.486;6.332;2022-12-24T16:32:29;14.18;;;4.20;;
75639;SDS011;64233;51.486;6.332;2022-12-24T16:34:52;8.57;;;3.40;;
75639;SDS011;64233;51.486;6.332;2022-12-24T16:37:17;21.90;;;4.30;;
75639;SDS011;64233;51.486;6.332;2022-12-24T16:39:42;15.35;;;4.43;;
75639;SDS011;64233;51.486;6.332;2022-12-24T16:42:08;15.27;;;5.25;;
75639;SDS011;64233;51.486;6.332;2022-12-24T16:44:52;20.83;;;5.30;;
75639;SDS011;64233;51.486;6.332;2022-12-24T16:47:22;17.58;;;5.13;;
75639;SDS011;64233;51.486;6.332;2022-12-24T16:49:50;17.42;;;5.43;;
75639;SDS011;64233;51.486;6.332;2022-12-24T16:52:17;20.38;;;5.72;;
75639;SDS011;64233;51.486;6.332;2022-12-24T16:54:49;16.17;;;4.18;;
75639;SDS011;64233;51.486;6.332;2022-12-24T16:57:15;10.10;;;4.28;;
75639;SDS011;64233;51.486;6.332;2022-12-24T16:59:40;23.30;;;4.70;;